Time;durP1;ratioP1;P1;durP2;ratioP2;P2;SDS_P1;SDS_P2;PMS_P1;PMS_P2;Temp;Humidity;BMP_temperature;BMP_pressure;BME280_temperature;BME280_humidity;BME280_pressure;Samples;Min_cycle;Max_cycle;Signal;HPM_P1;HPM_P2
2023/11/12 00:09:15;;;;;;;67.60;39.80;;;;;;;5.22;87.29;97340.92;435278;1254;108111;-40
2023/11/12 00:19:19;;;;;;;58.10;32.40;;;;;;;5.17;87.14;97345.73;435510;1253;99278;-41
2023/11/12 00:29:23;;;;;;;48.00;29.70;;;;;;;5.22;87.35;97349.02;435384;1254;108341;-41
2023/11/12 00:39:27;;;;;;;48.90;29.10;;;;;;;5.28;87.40;97356.84;435387;1253;449819;-40
2023/11/12 00:49:31;;;;;;;55.60;31.60;;;;;;;5.29;87.44;97363.35;435396;1254;111283;-41
2023/11/12 01:09:38;;;;;;;57.80;36.00;;;;;;;5.14;87.74;97372.84;435519;1251;99306;-44
2023/11/12 01:19:42;;;;;;;42.10;28.90;;;;;;;5.13;87.79;97375.13;435349;1264;108639;-41
2023/11/12 01:29:46;;;;;;;41.60;26.90;;;;;;;5.16;87.91;97378.30;435473;1254;99342;-41
2023/11/12 01:39:49;;;;;;;38.20;24.30;;;;;;;5.25;88.00;97383.41;435471;1263;110932;-41
2023/11/12 01:49:53;;;;;;;36.40;22.90;;;;;;;5.24;88.08;97391.66;435499;1258;108319;-40
2023/11/12 01:59:57;;;;;;;44.60;28.30;;;;;;;5.25;88.36;97391.36;435332;1251;98715;-42
2023/11/12 02:30:11;;;;;;;35.10;23.40;;;;;;;5.31;88.83;97391.02;436243;1253;111575;-40
2023/11/12 02:40:14;;;;;;;40.90;23.30;;;;;;;5.42;88.99;97396.91;436121;1254;107319;-40
2023/11/12 02:50:22;;;;;;;37.70;22.90;;;;;;;5.50;89.02;97396.64;436250;1253;99212;-41
2023/11/12 03:00:27;;;;;;;39.90;22.70;;;;;;;5.60;89.37;97401.98;436099;1253;108307;-40
2023/11/12 03:10:31;;;;;;;43.50;26.80;;;;;;;5.64;89.57;97402.55;436171;1251;99247;-40
2023/11/12 03:20:35;;;;;;;45.10;27.10;;;;;;;5.59;89.70;97411.86;436146;1253;111360;-43
2023/11/12 03:50:46;;;;;;;28.60;17.40;;;;;;;5.71;89.86;97422.39;436272;1253;107639;-42
2023/11/12 04:00:50;;;;;;;25.10;18.00;;;;;;;5.72;89.99;97430.77;436102;1251;97984;-40
2023/11/12 04:10:54;;;;;;;22.20;16.10;;;;;;;5.73;89.97;97436.81;436134;1254;112039;-40
2023/11/12 04:20:59;;;;;;;22.80;15.30;;;;;;;5.73;90.27;97439.01;436439;1251;107242;-40
2023/11/12 04:31:03;;;;;;;26.60;16.80;;;;;;;5.60;90.25;97448.81;436253;1249;99222;-41
2023/11/12 04:51:11;;;;;;;21.90;12.90;;;;;;;5.54;90.76;97464.58;436249;1253;99262;-41
2023/11/12 05:01:15;;;;;;;20.50;14.10;;;;;;;5.59;90.94;97468.13;436208;1253;112992;-40
2023/11/12 05:11:18;;;;;;;17.30;12.70;;;;;;;5.67;91.02;97469.21;436178;1251;109189;-41
2023/11/12 05:21:22;;;;;;;21.00;15.50;;;;;;;5.65;91.05;97476.27;436268;1253;99231;-41
2023/11/12 05:31:26;;;;;;;28.40;19.70;;;;;;;5.55;91.36;97490.61;436184;1253;108254;-40
2023/11/12 05:41:30;;;;;;;27.10;15.40;;;;;;;5.54;91.28;97498.77;436212;1253;99228;-40
2023/11/12 05:51:35;;;;;;;28.20;16.50;;;;;;;5.55;91.51;97510.70;436425;1249;111405;-41
2023/11/12 06:01:39;;;;;;;19.20;12.10;;;;;;;5.59;91.59;97516.82;436165;1253;107377;-40
2023/11/12 06:11:43;;;;;;;16.20;11.30;;;;;;;5.60;91.66;97533.41;436267;1253;98678;-40
2023/11/12 06:21:47;;;;;;;18.40;12.20;;;;;;;5.64;91.87;97539.70;436321;1253;108245;-40
2023/11/12 06:31:51;;;;;;;22.20;15.10;;;;;;;5.67;91.88;97553.65;436269;1253;98820;-40
2023/11/12 06:41:54;;;;;;;43.40;28.70;;;;;;;5.60;91.78;97565.82;436333;1249;112147;-40
2023/11/12 06:51:59;;;;;;;23.50;16.40;;;;;;;5.57;91.90;97572.77;436284;1251;108195;-40
2023/11/12 07:02:06;;;;;;;17.00;11.90;;;;;;;5.66;91.85;97577.55;436332;1253;99196;-40
2023/11/12 07:12:10;;;;;;;16.60;12.70;;;;;;;5.69;92.08;97580.23;436271;1253;107583;-42
2023/11/12 07:22:14;;;;;;;13.50;10.40;;;;;;;5.75;91.91;97584.38;436336;1268;99284;-40
2023/11/12 07:32:18;;;;;;;16.80;12.00;;;;;;;5.84;91.98;97593.67;436306;1253;112169;-43
2023/11/12 07:42:22;;;;;;;17.80;13.00;;;;;;;5.93;92.03;97603.84;436319;1253;108498;-40
2023/11/12 07:52:26;;;;;;;24.50;11.90;;;;;;;6.08;92.25;97607.55;436319;1251;99181;-40
2023/11/12 08:02:30;;;;;;;12.40;9.00;;;;;;;6.29;92.18;97614.67;436200;1251;108249;-40
2023/11/12 08:12:33;;;;;;;9.10;6.90;;;;;;;6.57;91.98;97616.41;436389;1251;99340;-41
2023/11/12 08:22:37;;;;;;;9.00;6.70;;;;;;;6.50;91.74;97623.30;436370;1251;113157;-40
2023/11/12 08:32:42;;;;;;;12.20;7.70;;;;;;;6.62;91.91;97633.50;436212;1253;106679;-39
2023/11/12 08:42:45;;;;;;;12.30;7.90;;;;;;;6.59;91.87;97644.83;436446;1249;98833;-39
2023/11/12 08:52:48;;;;;;;15.60;11.70;;;;;;;6.52;91.49;97660.86;436328;1249;107593;-40
2023/11/12 09:02:52;;;;;;;12.90;10.20;;;;;;;6.50;91.52;97670.84;436205;1250;99041;-40
2023/11/12 09:12:56;;;;;;;13.90;9.50;;;;;;;6.57;91.49;97675.98;436332;1251;111224;-40
2023/11/12 09:23:00;;;;;;;12.80;10.10;;;;;;;6.63;91.34;97686.17;436327;1253;107590;-39
2023/11/12 09:43:07;;;;;;;21.70;14.70;;;;;;;6.91;91.06;97692.59;436304;1253;108499;-40
2023/11/12 09:53:12;;;;;;;13.40;9.60;;;;;;;6.96;90.57;97696.27;436387;1253;99310;-39
2023/11/12 10:03:17;;;;;;;14.70;10.20;;;;;;;7.00;90.57;97695.00;436413;1253;112959;-40
2023/11/12 10:13:28;;;;;;;12.30;7.80;;;;;;;7.07;90.36;97693.42;436307;1253;108131;-40
2023/11/12 10:23:31;;;;;;;9.90;6.50;;;;;;;7.15;89.75;97687.30;436308;1253;99209;-40
2023/11/12 10:33:37;;;;;;;21.60;14.30;;;;;;;7.41;89.66;97683.36;436198;1251;107412;-40
2023/11/12 10:43:55;;;;;;;21.20;13.60;;;;;;;7.65;89.21;97681.36;436474;1251;99215;-39
2023/11/12 10:54:02;;;;;;;55.80;29.70;;;;;;;7.84;88.68;97679.42;436257;1251;112721;-40
2023/11/12 11:04:06;;;;;;;8.20;6.40;;;;;;;7.81;87.85;97678.61;436226;1251;108228;-40
2023/11/12 11:24:45;;;;;;;11.60;8.90;;;;;;;7.81;87.33;97678.73;436376;1252;107191;-41
2023/11/12 11:34:51;;;;;;;7.60;5.80;;;;;;;7.80;86.82;97684.70;436411;1253;99845;-40
2023/11/12 11:45:05;;;;;;;7.30;5.00;;;;;;;7.71;86.32;97687.46;436381;1251;111533;-41
2023/11/12 11:55:20;;;;;;;8.10;4.90;;;;;;;7.77;86.37;97689.58;436236;1253;109224;-40
2023/11/12 12:05:27;;;;;;;6.80;5.20;;;;;;;7.73;85.89;97689.83;436452;1251;99291;-40
2023/11/12 12:15:33;;;;;;;8.60;6.30;;;;;;;7.38;85.11;97693.30;436263;1253;107281;-40
2023/11/12 12:25:48;;;;;;;8.80;6.30;;;;;;;7.25;85.07;97698.80;436292;1253;99212;-40
2023/11/12 12:35:56;;;;;;;9.10;6.30;;;;;;;7.16;85.18;97697.89;436310;1252;112896;-41
2023/11/12 12:46:00;;;;;;;11.20;8.10;;;;;;;7.05;85.26;97706.73;435866;1254;418310;-41
2023/11/12 12:56:06;;;;;;;14.10;10.00;;;;;;;7.03;85.21;97710.92;436253;1253;99195;-48
2023/11/12 13:06:12;;;;;;;8.40;6.20;;;;;;;6.94;85.26;97722.00;436270;1253;109366;-41
2023/11/12 13:16:16;;;;;;;15.10;9.70;;;;;;;6.85;85.36;97729.02;436287;1253;99210;-41
2023/11/12 13:26:21;;;;;;;13.90;9.30;;;;;;;6.80;85.62;97733.52;436264;1253;110981;-40
2023/11/12 13:36:25;;;;;;;31.20;17.90;;;;;;;6.73;85.65;97743.77;436372;1253;107733;-40
2023/11/12 13:46:28;;;;;;;10.30;7.80;;;;;;;6.67;85.63;97750.38;436262;1253;98314;-40
2023/11/12 13:56:35;;;;;;;14.70;11.00;;;;;;;6.78;85.70;97759.61;436216;1253;107753;-41
2023/11/12 14:06:39;;;;;;;16.50;11.80;;;;;;;6.77;85.87;97770.58;436306;1251;99377;-40
2023/11/12 14:16:42;;;;;;;20.10;12.70;;;;;;;6.72;85.93;97781.05;436490;1253;111708;-40
2023/11/12 14:36:51;;;;;;;13.10;9.60;;;;;;;6.60;85.68;97794.84;436537;1253;98611;-40
2023/11/12 14:46:56;;;;;;;17.60;11.70;;;;;;;6.66;85.77;97798.89;436127;1251;107260;-40
2023/11/12 14:57:00;;;;;;;20.30;14.70;;;;;;;6.63;85.80;97809.16;436302;1253;98816;-40
2023/11/12 15:07:05;;;;;;;35.80;23.10;;;;;;;6.50;85.92;97818.80;436596;1249;110861;-40
2023/11/12 15:27:13;;;;;;;12.00;8.70;;;;;;;6.57;85.89;97824.80;435330;1252;99212;-40
2023/11/12 15:37:19;;;;;;;19.40;11.80;;;;;;;6.49;85.75;97818.36;435405;1254;108647;-39
2023/11/12 15:47:26;;;;;;;28.40;14.80;;;;;;;6.37;85.95;97819.73;435119;1256;101549;-41
2023/11/12 15:57:31;;;;;;;28.10;15.70;;;;;;;6.23;85.68;97833.36;435332;1251;110831;-41
2023/11/12 16:07:35;;;;;;;44.00;19.70;;;;;;;6.13;85.72;97834.36;435383;1252;98729;-40
2023/11/12 16:17:39;;;;;;;74.80;39.00;;;;;;;6.22;85.83;97838.84;435359;1254;99188;-41
2023/11/12 16:27:43;;;;;;;48.80;23.00;;;;;;;6.19;85.83;97836.24;435387;1254;111380;-40
2023/11/12 16:37:50;;;;;;;37.70;22.20;;;;;;;6.08;85.98;97844.77;435249;1254;106961;-41
2023/11/12 16:47:55;;;;;;;54.50;29.30;;;;;;;6.00;86.12;97849.64;435431;1254;98011;-40
2023/11/12 16:57:59;;;;;;;47.60;27.00;;;;;;;5.98;86.00;97850.71;435374;1252;111032;-41
2023/11/12 17:08:04;;;;;;;50.30;26.10;;;;;;;5.99;85.91;97860.67;435265;1251;107696;-41
2023/11/12 17:18:08;;;;;;;47.10;27.80;;;;;;;6.01;86.00;97872.06;435392;1255;99256;-41
2023/11/12 17:28:12;;;;;;;45.50;26.20;;;;;;;5.95;86.28;97881.50;435533;1254;108589;-40
2023/11/12 17:38:16;;;;;;;32.00;16.10;;;;;;;5.78;86.34;97883.54;435342;1253;99211;-40
2023/11/12 17:48:20;;;;;;;18.10;11.00;;;;;;;5.64;86.37;97890.77;435365;1253;110840;-40
2023/11/12 17:58:24;;;;;;;16.80;9.50;;;;;;;5.64;86.55;97894.99;435221;1255;108379;-40
2023/11/12 18:08:30;;;;;;;7.80;6.00;;;;;;;5.65;86.52;97900.84;435198;1255;98914;-41
2023/11/12 18:18:34;;;;;;;10.10;7.80;;;;;;;5.56;86.71;97903.15;435242;1256;106607;-41
2023/11/12 18:28:38;;;;;;;14.60;8.90;;;;;;;5.44;86.85;97914.74;435529;1254;97981;-41
2023/11/12 18:38:42;;;;;;;13.00;9.40;;;;;;;5.36;86.85;97921.45;435319;1255;112015;-41
2023/11/12 18:48:46;;;;;;;16.20;8.40;;;;;;;5.36;86.71;97919.64;435233;1253;108668;-40
2023/11/12 19:08:53;;;;;;;17.00;8.40;;;;;;;5.35;86.97;97928.36;435249;1255;108349;-41
2023/11/12 19:29:02;;;;;;;10.50;6.10;;;;;;;5.28;87.13;97952.45;435443;1254;111477;-40
2023/11/12 19:49:10;;;;;;;15.60;9.00;;;;;;;5.32;87.33;97963.06;435261;1254;99543;-41
2023/11/12 19:59:14;;;;;;;16.40;10.10;;;;;;;5.38;87.33;97969.15;435302;1255;108247;-41
2023/11/12 20:09:20;;;;;;;30.20;16.10;;;;;;;5.34;87.29;97974.23;435293;1253;98006;-40
2023/11/12 20:19:24;;;;;;;41.80;20.40;;;;;;;5.22;87.54;97980.76;435353;1254;111658;-42
2023/11/12 20:29:27;;;;;;;29.70;16.80;;;;;;;5.14;87.52;97975.48;435240;1253;107377;-40
2023/11/12 20:39:30;;;;;;;25.30;17.10;;;;;;;5.20;87.68;97978.75;435316;1254;99218;-42
2023/11/12 20:59:37;;;;;;;29.60;19.10;;;;;;;5.23;87.90;97974.95;435263;1251;99271;-40
2023/11/12 21:19:46;;;;;;;22.20;15.70;;;;;;;5.11;87.79;97969.05;435496;1250;107603;-41
2023/11/12 21:39:54;;;;;;;28.20;18.40;;;;;;;5.11;87.71;97971.10;435282;1254;108721;-39
2023/11/12 21:49:58;;;;;;;33.00;18.60;;;;;;;5.14;87.87;97968.21;435353;1256;98818;-41
2023/11/12 22:00:11;;;;;;;27.80;17.50;;;;;;;5.06;87.80;97977.39;435345;1255;111772;-40
2023/11/12 22:10:15;;;;;;;23.30;16.40;;;;;;;4.91;87.53;97984.95;435261;1251;107416;-41
2023/11/12 22:20:19;;;;;;;29.30;16.40;;;;;;;4.89;87.59;97991.12;435167;1263;99254;-41
2023/11/12 22:30:23;;;;;;;25.30;15.60;;;;;;;4.92;87.74;97998.96;435388;1255;107588;-41
2023/11/12 22:40:26;;;;;;;30.10;18.30;;;;;;;4.86;87.66;98004.11;435302;1255;99212;-41
2023/11/12 22:50:30;;;;;;;29.70;18.20;;;;;;;4.76;87.72;98011.86;435372;1255;110835;-40
2023/11/12 23:10:48;;;;;;;20.00;12.40;;;;;;;4.80;87.49;98024.48;435393;1255;98980;-41
2023/11/12 23:20:52;;;;;;;21.70;14.00;;;;;;;4.83;87.57;98026.38;435255;1251;107945;-41
2023/11/12 23:31:09;;;;;;;25.20;16.00;;;;;;;4.79;87.44;98028.00;435276;1255;99240;-41
2023/11/12 23:41:13;;;;;;;32.20;17.40;;;;;;;4.65;87.54;98042.59;435427;1254;111749;-39
